sensor_id;sensor_type;location;lat;lon;timestamp;pressure;altitude;pressure_sealevel;temperature;humidity
74594;BME280;63097;51.872;4.460;2023-07-20T00:00:57;101640.47;;;15.87;95.43
74594;BME280;63097;51.872;4.460;2023-07-20T00:03:22;101636.78;;;15.86;95.35
74594;BME280;63097;51.872;4.460;2023-07-20T00:05:48;101636.22;;;15.84;95.35
74594;BME280;63097;51.872;4.460;2023-07-20T00:08:14;101640.34;;;15.77;95.90
74594;BME280;63097;51.872;4.460;2023-07-20T00:10:40;101628.91;;;15.78;96.28
74594;BME280;63097;51.872;4.460;2023-07-20T00:13:05;101645.16;;;15.76;96.06
74594;BME280;63097;51.872;4.460;2023-07-20T00:15:31;101645.91;;;15.67;96.07
74594;BME280;63097;51.872;4.460;2023-07-20T00:17:57;101655.41;;;15.66;96.75
74594;BME280;63097;51.872;4.460;2023-07-20T00:20:23;101650.88;;;15.60;97.19
74594;BME280;63097;51.872;4.460;2023-07-20T00:22:49;101651.94;;;15.54;97.40
74594;BME280;63097;51.872;4.460;2023-07-20T00:25:14;101647.13;;;15.49;97.32
74594;BME280;63097;51.872;4.460;2023-07-20T00:27:40;101652.19;;;15.47;97.54
74594;BME280;63097;51.872;4.460;2023-07-20T00:30:05;101649.06;;;15.44;97.44
74594;BME280;63097;51.872;4.460;2023-07-20T00:32:31;101645.75;;;15.52;97.78
74594;BME280;63097;51.872;4.460;2023-07-20T00:34:56;101649.50;;;15.62;97.67
74594;BME280;63097;51.872;4.460;2023-07-20T00:37:21;101646.28;;;15.80;97.42
74594;BME280;63097;51.872;4.460;2023-07-20T00:39:47;101656.22;;;15.93;96.52
74594;BME280;63097;51.872;4.460;2023-07-20T00:42:12;101652.03;;;16.00;96.09
74594;BME280;63097;51.872;4.460;2023-07-20T00:44:37;101651.81;;;16.02;96.31
74594;BME280;63097;51.872;4.460;2023-07-20T00:47:04;101646.97;;;15.97;95.69
74594;BME280;63097;51.872;4.460;2023-07-20T00:49:29;101656.56;;;16.01;96.24
74594;BME280;63097;51.872;4.460;2023-07-20T00:51:55;101652.28;;;15.94;96.33
74594;BME280;63097;51.872;4.460;2023-07-20T00:54:20;101637.81;;;15.75;96.50
74594;BME280;63097;51.872;4.460;2023-07-20T00:56:45;101653.88;;;15.80;97.30
74594;BME280;63097;51.872;4.460;2023-07-20T00:59:11;101650.47;;;15.78;97.54
74594;BME280;63097;51.872;4.460;2023-07-20T01:01:37;101649.41;;;15.84;97.18
74594;BME280;63097;51.872;4.460;2023-07-20T01:04:03;101655.81;;;15.79;97.75
74594;BME280;63097;51.872;4.460;2023-07-20T01:07:14;101650.13;;;15.69;97.78
74594;BME280;63097;51.872;4.460;2023-07-20T01:09:26;101655.66;;;15.59;98.27
74594;BME280;63097;51.872;4.460;2023-07-20T01:14:18;101655.22;;;15.46;99.02
74594;BME280;63097;51.872;4.460;2023-07-20T01:16:44;101648.34;;;15.58;98.90
74594;BME280;63097;51.872;4.460;2023-07-20T01:19:09;101646.09;;;15.60;98.15
74594;BME280;63097;51.872;4.460;2023-07-20T01:21:41;101661.09;;;15.44;98.40
74594;BME280;63097;51.872;4.460;2023-07-20T01:29:59;101657.19;;;15.24;99.58
74594;BME280;63097;51.872;4.460;2023-07-20T01:32:29;101666.69;;;15.18;99.73
74594;BME280;63097;51.872;4.460;2023-07-20T01:34:56;101666.09;;;15.16;99.62
74594;BME280;63097;51.872;4.460;2023-07-20T01:37:24;101669.75;;;15.16;99.53
74594;BME280;63097;51.872;4.460;2023-07-20T01:39:52;101662.34;;;15.05;99.22
74594;BME280;63097;51.872;4.460;2023-07-20T01:42:17;101662.84;;;15.02;99.58
74594;BME280;63097;51.872;4.460;2023-07-20T01:44:43;101671.50;;;15.00;99.34
74594;BME280;63097;51.872;4.460;2023-07-20T01:47:08;101679.34;;;14.98;99.37
74594;BME280;63097;51.872;4.460;2023-07-20T01:49:33;101677.66;;;14.97;99.23
74594;BME280;63097;51.872;4.460;2023-07-20T01:51:59;101675.34;;;14.94;99.13
74594;BME280;63097;51.872;4.460;2023-07-20T01:54:24;101671.47;;;14.95;98.79
74594;BME280;63097;51.872;4.460;2023-07-20T01:56:49;101671.09;;;14.87;98.91
74594;BME280;63097;51.872;4.460;2023-07-20T01:59:15;101679.72;;;14.85;99.17
74594;BME280;63097;51.872;4.460;2023-07-20T02:01:40;101678.22;;;14.78;98.83
74594;BME280;63097;51.872;4.460;2023-07-20T02:04:05;101678.50;;;14.76;99.29
74594;BME280;63097;51.872;4.460;2023-07-20T02:06:31;101683.66;;;14.84;99.84
74594;BME280;63097;51.872;4.460;2023-07-20T02:08:56;101677.56;;;14.92;99.45
74594;BME280;63097;51.872;4.460;2023-07-20T02:11:22;101675.84;;;14.86;99.42
74594;BME280;63097;51.872;4.460;2023-07-20T02:13:47;101680.59;;;14.86;99.68
74594;BME280;63097;51.872;4.460;2023-07-20T02:16:12;101680.78;;;14.79;100.00
74594;BME280;63097;51.872;4.460;2023-07-20T02:18:38;101684.94;;;14.77;99.86
74594;BME280;63097;51.872;4.460;2023-07-20T02:21:03;101678.44;;;14.71;99.87
74594;BME280;63097;51.872;4.460;2023-07-20T02:23:28;101671.91;;;14.66;100.00
74594;BME280;63097;51.872;4.460;2023-07-20T02:25:53;101682.25;;;14.65;100.00
74594;BME280;63097;51.872;4.460;2023-07-20T02:28:19;101684.41;;;14.58;100.00
74594;BME280;63097;51.872;4.460;2023-07-20T02:30:44;101686.28;;;14.53;100.00
74594;BME280;63097;51.872;4.460;2023-07-20T02:33:09;101685.09;;;14.49;100.00
74594;BME280;63097;51.872;4.460;2023-07-20T02:35:35;101686.50;;;14.46;100.00
74594;BME280;63097;51.872;4.460;2023-07-20T02:38:00;101697.31;;;14.59;100.00
74594;BME280;63097;51.872;4.460;2023-07-20T02:40:25;101704.41;;;14.67;100.00
74594;BME280;63097;51.872;4.460;2023-07-20T02:42:51;101697.78;;;14.73;100.00
74594;BME280;63097;51.872;4.460;2023-07-20T02:45:16;101696.69;;;14.74;100.00
74594;BME280;63097;51.872;4.460;2023-07-20T02:47:41;101695.28;;;14.76;100.00
74594;BME280;63097;51.872;4.460;2023-07-20T02:50:08;101703.06;;;14.91;100.00
74594;BME280;63097;51.872;4.460;2023-07-20T02:52:33;101704.50;;;14.93;99.29
74594;BME280;63097;51.872;4.460;2023-07-20T02:54:58;101697.28;;;14.97;99.40
74594;BME280;63097;51.872;4.460;2023-07-20T02:57:24;101706.63;;;15.08;99.40
74594;BME280;63097;51.872;4.460;2023-07-20T02:59:49;101706.97;;;15.11;98.36
74594;BME280;63097;51.872;4.460;2023-07-20T03:02:14;101703.69;;;15.20;98.19
74594;BME280;63097;51.872;4.460;2023-07-20T03:04:40;101707.50;;;15.35;96.62
74594;BME280;63097;51.872;4.460;2023-07-20T03:07:05;101695.94;;;15.27;97.65
74594;BME280;63097;51.872;4.460;2023-07-20T03:09:31;101699.72;;;15.16;96.99
74594;BME280;63097;51.872;4.460;2023-07-20T03:11:56;101699.81;;;14.99;97.69
74594;BME280;63097;51.872;4.460;2023-07-20T03:14:21;101695.88;;;14.78;97.93
74594;BME280;63097;51.872;4.460;2023-07-20T03:16:47;101701.97;;;14.70;98.86
74594;BME280;63097;51.872;4.460;2023-07-20T03:19:12;101700.13;;;14.59;99.63
74594;BME280;63097;51.872;4.460;2023-07-20T03:21:37;101707.00;;;14.52;100.00
74594;BME280;63097;51.872;4.460;2023-07-20T03:24:03;101707.75;;;14.47;100.00
74594;BME280;63097;51.872;4.460;2023-07-20T03:26:28;101704.31;;;14.40;100.00
74594;BME280;63097;51.872;4.460;2023-07-20T03:28:53;101705.84;;;14.31;100.00
74594;BME280;63097;51.872;4.460;2023-07-20T03:31:19;101715.75;;;14.22;100.00
74594;BME280;63097;51.872;4.460;2023-07-20T03:33:44;101710.31;;;14.15;100.00
74594;BME280;63097;51.872;4.460;2023-07-20T03:36:09;101708.91;;;14.13;100.00
74594;BME280;63097;51.872;4.460;2023-07-20T03:38:35;101712.44;;;14.08;100.00
74594;BME280;63097;51.872;4.460;2023-07-20T03:41:00;101716.03;;;14.04;100.00
74594;BME280;63097;51.872;4.460;2023-07-20T03:43:27;101711.44;;;13.98;100.00
74594;BME280;63097;51.872;4.460;2023-07-20T03:45:53;101718.47;;;14.00;100.00
74594;BME280;63097;51.872;4.460;2023-07-20T03:48:21;101721.53;;;13.99;100.00
74594;BME280;63097;51.872;4.460;2023-07-20T03:50:48;101721.09;;;14.07;100.00
74594;BME280;63097;51.872;4.460;2023-07-20T03:53:14;101719.75;;;14.09;100.00
74594;BME280;63097;51.872;4.460;2023-07-20T03:55:40;101729.75;;;14.22;100.00
74594;BME280;63097;51.872;4.460;2023-07-20T03:58:06;101724.09;;;14.34;100.00
74594;BME280;63097;51.872;4.460;2023-07-20T04:00:31;101733.50;;;14.44;100.00
74594;BME280;63097;51.872;4.460;2023-07-20T04:02:57;101726.88;;;14.50;100.00
74594;BME280;63097;51.872;4.460;2023-07-20T04:05:22;101727.53;;;14.57;100.00
74594;BME280;63097;51.872;4.460;2023-07-20T04:07:47;101734.31;;;14.61;100.00
74594;BME280;63097;51.872;4.460;2023-07-20T04:10:13;101730.47;;;14.67;100.00
74594;BME280;63097;51.872;4.460;2023-07-20T04:12:38;101726.31;;;14.70;99.77
74594;BME280;63097;51.872;4.460;2023-07-20T04:15:03;101726.09;;;14.76;99.58
74594;BME280;63097;51.872;4.460;2023-07-20T04:17:29;101722.22;;;14.77;99.62
74594;BME280;63097;51.872;4.460;2023-07-20T04:19:55;101725.72;;;14.89;99.36
74594;BME280;63097;51.872;4.460;2023-07-20T04:22:20;101721.84;;;14.90;98.52
74594;BME280;63097;51.872;4.460;2023-07-20T04:24:45;101722.97;;;14.94;98.73
74594;BME280;63097;51.872;4.460;2023-07-20T04:27:11;101724.69;;;14.95;98.47
74594;BME280;63097;51.872;4.460;2023-07-20T04:29:36;101722.94;;;14.89;98.24
74594;BME280;63097;51.872;4.460;2023-07-20T04:32:01;101716.66;;;14.82;98.51
74594;BME280;63097;51.872;4.460;2023-07-20T04:34:27;101721.41;;;14.82;98.70
74594;BME280;63097;51.872;4.460;2023-07-20T04:36:52;101722.53;;;14.81;99.02
74594;BME280;63097;51.872;4.460;2023-07-20T04:39:17;101722.59;;;14.86;99.27
74594;BME280;63097;51.872;4.460;2023-07-20T04:41:42;101724.88;;;14.89;98.96
74594;BME280;63097;51.872;4.460;2023-07-20T04:44:08;101721.34;;;14.98;99.05
74594;BME280;63097;51.872;4.460;2023-07-20T04:46:33;101728.91;;;14.98;98.91
74594;BME280;63097;51.872;4.460;2023-07-20T04:48:58;101730.69;;;15.04;98.41
74594;BME280;63097;51.872;4.460;2023-07-20T04:51:24;101735.63;;;15.19;97.05
74594;BME280;63097;51.872;4.460;2023-07-20T04:53:49;101731.72;;;15.20;96.30
74594;BME280;63097;51.872;4.460;2023-07-20T04:56:15;101728.13;;;15.24;95.54
74594;BME280;63097;51.872;4.460;2023-07-20T04:58:40;101726.81;;;15.32;95.49
74594;BME280;63097;51.872;4.460;2023-07-20T05:01:05;101729.03;;;15.30;95.49
74594;BME280;63097;51.872;4.460;2023-07-20T05:03:31;101723.44;;;15.30;95.02
74594;BME280;63097;51.872;4.460;2023-07-20T05:05:57;101736.09;;;15.32;95.48
74594;BME280;63097;51.872;4.460;2023-07-20T05:08:22;101731.13;;;15.39;94.15
74594;BME280;63097;51.872;4.460;2023-07-20T05:10:48;101735.38;;;15.42;94.43
74594;BME280;63097;51.872;4.460;2023-07-20T05:13:13;101741.31;;;15.45;94.03
74594;BME280;63097;51.872;4.460;2023-07-20T05:15:39;101734.91;;;15.50;93.67
74594;BME280;63097;51.872;4.460;2023-07-20T05:18:05;101733.22;;;15.49;93.78
74594;BME280;63097;51.872;4.460;2023-07-20T05:20:30;101734.72;;;15.56;93.30
74594;BME280;63097;51.872;4.460;2023-07-20T05:22:55;101730.81;;;15.62;92.64
74594;BME280;63097;51.872;4.460;2023-07-20T05:25:21;101732.31;;;15.70;91.65
74594;BME280;63097;51.872;4.460;2023-07-20T05:27:46;101735.22;;;15.80;91.47
74594;BME280;63097;51.872;4.460;2023-07-20T05:30:11;101732.22;;;15.91;91.17
74594;BME280;63097;51.872;4.460;2023-07-20T05:32:37;101736.19;;;15.95;90.10
74594;BME280;63097;51.872;4.460;2023-07-20T05:35:02;101739.44;;;16.09;89.73
74594;BME280;63097;51.872;4.460;2023-07-20T05:37:28;101738.44;;;16.25;89.56
74594;BME280;63097;51.872;4.460;2023-07-20T05:39:53;101737.38;;;16.36;89.58
74594;BME280;63097;51.872;4.460;2023-07-20T05:42:18;101743.91;;;16.47;87.56
74594;BME280;63097;51.872;4.460;2023-07-20T05:44:44;101737.59;;;16.61;86.68
74594;BME280;63097;51.872;4.460;2023-07-20T05:47:09;101738.78;;;16.70;86.46
74594;BME280;63097;51.872;4.460;2023-07-20T05:49:35;101729.56;;;16.85;85.23
74594;BME280;63097;51.872;4.460;2023-07-20T05:52:00;101741.19;;;17.03;84.35
74594;BME280;63097;51.872;4.460;2023-07-20T05:54:26;101742.38;;;17.13;83.84
74594;BME280;63097;51.872;4.460;2023-07-20T05:56:51;101747.47;;;17.26;82.89
74594;BME280;63097;51.872;4.460;2023-07-20T05:59:17;101746.41;;;17.37;82.48
74594;BME280;63097;51.872;4.460;2023-07-20T06:01:43;101742.00;;;17.56;78.06
74594;BME280;63097;51.872;4.460;2023-07-20T06:04:08;101739.19;;;17.66;77.76
74594;BME280;63097;51.872;4.460;2023-07-20T06:06:34;101742.06;;;17.86;76.96
74594;BME280;63097;51.872;4.460;2023-07-20T06:09:00;101744.03;;;17.85;75.59
74594;BME280;63097;51.872;4.460;2023-07-20T06:11:25;101740.63;;;17.63;76.74
74594;BME280;63097;51.872;4.460;2023-07-20T06:13:51;101747.69;;;17.86;76.45
74594;BME280;63097;51.872;4.460;2023-07-20T06:16:16;101751.59;;;17.75;74.78
74594;BME280;63097;51.872;4.460;2023-07-20T06:18:41;101747.09;;;17.79;73.96
74594;BME280;63097;51.872;4.460;2023-07-20T06:21:07;101749.63;;;17.80;75.89
74594;BME280;63097;51.872;4.460;2023-07-20T06:23:32;101750.50;;;18.06;74.50
74594;BME280;63097;51.872;4.460;2023-07-20T06:25:57;101745.78;;;18.42;74.24
74594;BME280;63097;51.872;4.460;2023-07-20T06:28:23;101747.72;;;18.41;72.68
74594;BME280;63097;51.872;4.460;2023-07-20T06:30:48;101754.47;;;18.55;71.93
74594;BME280;63097;51.872;4.460;2023-07-20T06:33:13;101751.34;;;18.77;70.80
74594;BME280;63097;51.872;4.460;2023-07-20T06:35:41;101757.25;;;18.85;70.73
74594;BME280;63097;51.872;4.460;2023-07-20T06:38:07;101754.13;;;18.97;70.61
74594;BME280;63097;51.872;4.460;2023-07-20T06:40:32;101748.34;;;19.37;69.94
74594;BME280;63097;51.872;4.460;2023-07-20T06:42:57;101757.28;;;19.59;68.58
74594;BME280;63097;51.872;4.460;2023-07-20T06:45:22;101753.44;;;19.25;68.85
74594;BME280;63097;51.872;4.460;2023-07-20T06:47:48;101756.34;;;19.69;68.81
74594;BME280;63097;51.872;4.460;2023-07-20T06:50:13;101759.84;;;19.99;65.97
74594;BME280;63097;51.872;4.460;2023-07-20T06:52:38;101756.16;;;19.50;67.16
74594;BME280;63097;51.872;4.460;2023-07-20T06:55:04;101751.88;;;19.63;67.57
74594;BME280;63097;51.872;4.460;2023-07-20T06:57:30;101759.56;;;19.47;68.50
74594;BME280;63097;51.872;4.460;2023-07-20T06:59:55;101759.09;;;19.20;67.76
74594;BME280;63097;51.872;4.460;2023-07-20T07:02:20;101768.50;;;18.90;69.11
74594;BME280;63097;51.872;4.460;2023-07-20T07:04:45;101767.41;;;18.76;70.11
74594;BME280;63097;51.872;4.460;2023-07-20T07:07:11;101766.00;;;18.74;69.05
74594;BME280;63097;51.872;4.460;2023-07-20T07:09:36;101764.91;;;18.45;69.92
74594;BME280;63097;51.872;4.460;2023-07-20T07:12:02;101767.72;;;18.40;70.94
74594;BME280;63097;51.872;4.460;2023-07-20T07:14:27;101771.38;;;18.20;70.34
74594;BME280;63097;51.872;4.460;2023-07-20T07:16:52;101771.63;;;18.19;70.49
74594;BME280;63097;51.872;4.460;2023-07-20T07:19:18;101771.66;;;18.03;70.81
74594;BME280;63097;51.872;4.460;2023-07-20T07:21:43;101769.13;;;18.07;71.41
74594;BME280;63097;51.872;4.460;2023-07-20T07:24:08;101776.41;;;17.93;72.54
74594;BME280;63097;51.872;4.460;2023-07-20T07:26:34;101775.81;;;17.86;72.85
74594;BME280;63097;51.872;4.460;2023-07-20T07:28:59;101776.41;;;17.93;73.22
74594;BME280;63097;51.872;4.460;2023-07-20T07:31:25;101779.22;;;18.13;72.24
74594;BME280;63097;51.872;4.460;2023-07-20T07:33:50;101776.16;;;18.20;73.43
74594;BME280;63097;51.872;4.460;2023-07-20T07:36:15;101779.28;;;18.43;72.46
74594;BME280;63097;51.872;4.460;2023-07-20T07:38:41;101775.22;;;19.04;69.15
74594;BME280;63097;51.872;4.460;2023-07-20T07:41:06;101773.63;;;19.62;68.59
74594;BME280;63097;51.872;4.460;2023-07-20T07:43:31;101772.81;;;20.00;65.98
74594;BME280;63097;51.872;4.460;2023-07-20T07:45:57;101770.69;;;20.55;64.76
74594;BME280;63097;51.872;4.460;2023-07-20T07:48:22;101767.53;;;20.61;63.15
74594;BME280;63097;51.872;4.460;2023-07-20T07:50:47;101776.25;;;20.36;63.41
74594;BME280;63097;51.872;4.460;2023-07-20T07:53:13;101773.69;;;20.68;63.96
74594;BME280;63097;51.872;4.460;2023-07-20T07:55:38;101788.09;;;21.24;60.36
74594;BME280;63097;51.872;4.460;2023-07-20T07:58:04;101777.94;;;20.94;61.29
74594;BME280;63097;51.872;4.460;2023-07-20T08:00:29;101779.00;;;21.04;60.40
74594;BME280;63097;51.872;4.460;2023-07-20T08:02:54;101778.19;;;20.69;60.72
74594;BME280;63097;51.872;4.460;2023-07-20T08:05:20;101775.31;;;20.74;60.75
74594;BME280;63097;51.872;4.460;2023-07-20T08:07:45;101774.31;;;20.89;61.68
74594;BME280;63097;51.872;4.460;2023-07-20T08:10:10;101771.88;;;20.77;60.25
74594;BME280;63097;51.872;4.460;2023-07-20T08:12:36;101781.31;;;20.39;61.06
74594;BME280;63097;51.872;4.460;2023-07-20T08:15:01;101790.22;;;20.13;61.46
74594;BME280;63097;51.872;4.460;2023-07-20T08:17:27;101787.38;;;19.74;63.44
74594;BME280;63097;51.872;4.460;2023-07-20T08:19:52;101781.94;;;19.34;64.13
74594;BME280;63097;51.872;4.460;2023-07-20T08:22:17;101780.78;;;19.40;64.09
74594;BME280;63097;51.872;4.460;2023-07-20T08:24:43;101790.13;;;19.20;65.27
74594;BME280;63097;51.872;4.460;2023-07-20T08:27:09;101789.66;;;18.83;65.60
74594;BME280;63097;51.872;4.460;2023-07-20T08:29:35;101780.69;;;18.66;66.20
74594;BME280;63097;51.872;4.460;2023-07-20T08:32:01;101784.63;;;18.60;66.86
74594;BME280;63097;51.872;4.460;2023-07-20T08:34:26;101780.41;;;18.67;67.72
74594;BME280;63097;51.872;4.460;2023-07-20T08:36:52;101781.25;;;18.73;67.18
74594;BME280;63097;51.872;4.460;2023-07-20T08:39:17;101788.28;;;18.65;68.51
74594;BME280;63097;51.872;4.460;2023-07-20T08:41:43;101784.63;;;18.60;68.98
74594;BME280;63097;51.872;4.460;2023-07-20T08:44:10;101788.28;;;18.65;69.00
74594;BME280;63097;51.872;4.460;2023-07-20T08:46:38;101790.53;;;18.53;69.96
74594;BME280;63097;51.872;4.460;2023-07-20T08:49:04;101789.41;;;18.64;70.00
74594;BME280;63097;51.872;4.460;2023-07-20T08:51:30;101786.59;;;18.64;69.65
74594;BME280;63097;51.872;4.460;2023-07-20T08:53:56;101786.53;;;18.94;68.10
74594;BME280;63097;51.872;4.460;2023-07-20T08:56:23;101799.00;;;18.78;68.25
74594;BME280;63097;51.872;4.460;2023-07-20T08:58:50;101797.28;;;18.87;69.00
74594;BME280;63097;51.872;4.460;2023-07-20T09:01:17;101787.09;;;18.96;68.56
74594;BME280;63097;51.872;4.460;2023-07-20T09:03:45;101783.97;;;19.13;69.03
74594;BME280;63097;51.872;4.460;2023-07-20T09:06:10;101781.94;;;19.34;67.16
74594;BME280;63097;51.872;4.460;2023-07-20T09:08:39;101777.75;;;20.24;63.50
74594;BME280;63097;51.872;4.460;2023-07-20T09:11:05;101772.31;;;20.32;62.47
74594;BME280;63097;51.872;4.460;2023-07-20T09:13:32;101773.66;;;21.02;60.50
74594;BME280;63097;51.872;4.460;2023-07-20T09:15:58;101779.09;;;21.17;59.54
74594;BME280;63097;51.872;4.460;2023-07-20T09:18:31;101777.84;;;21.70;58.75
74594;BME280;63097;51.872;4.460;2023-07-20T09:21:04;101776.59;;;22.19;57.44
74594;BME280;63097;51.872;4.460;2023-07-20T09:23:36;101779.53;;;22.46;57.56
74594;BME280;63097;51.872;4.460;2023-07-20T09:26:13;101778.09;;;22.48;56.61
74594;BME280;63097;51.872;4.460;2023-07-20T09:28:43;101774.44;;;22.11;55.55
74594;BME280;63097;51.872;4.460;2023-07-20T09:31:18;101779.13;;;22.71;55.33
74594;BME280;63097;51.872;4.460;2023-07-20T09:33:44;101774.84;;;23.33;52.64
74594;BME280;63097;51.872;4.460;2023-07-20T09:36:09;101778.50;;;23.47;51.65
74594;BME280;63097;51.872;4.460;2023-07-20T09:38:35;101775.84;;;22.64;54.52
74594;BME280;63097;51.872;4.460;2023-07-20T09:41:01;101771.25;;;22.49;54.82
74594;BME280;63097;51.872;4.460;2023-07-20T09:43:28;101778.53;;;21.86;56.02
74594;BME280;63097;51.872;4.460;2023-07-20T09:45:57;101777.75;;;21.99;57.28
74594;BME280;63097;51.872;4.460;2023-07-20T09:48:24;101773.41;;;22.57;54.56
74594;BME280;63097;51.872;4.460;2023-07-20T09:50:50;101777.00;;;23.09;51.73
74594;BME280;63097;51.872;4.460;2023-07-20T09:53:17;101772.56;;;23.70;51.05
74594;BME280;63097;51.872;4.460;2023-07-20T09:55:44;101768.81;;;23.48;51.79
74594;BME280;63097;51.872;4.460;2023-07-20T09:58:10;101770.41;;;22.49;53.64
74594;BME280;63097;51.872;4.460;2023-07-20T10:00:39;101771.69;;;22.24;53.71
74594;BME280;63097;51.872;4.460;2023-07-20T10:03:06;101776.06;;;21.98;55.58
74594;BME280;63097;51.872;4.460;2023-07-20T10:05:34;101775.03;;;21.70;54.56
74594;BME280;63097;51.872;4.460;2023-07-20T10:08:02;101773.19;;;21.61;54.28
74594;BME280;63097;51.872;4.460;2023-07-20T10:10:28;101773.59;;;21.07;56.15
74594;BME280;63097;51.872;4.460;2023-07-20T10:12:57;101765.13;;;21.49;54.84
74594;BME280;63097;51.872;4.460;2023-07-20T10:15:30;101773.66;;;21.68;55.70
74594;BME280;63097;51.872;4.460;2023-07-20T10:18:14;101773.94;;;21.90;53.78
74594;BME280;63097;51.872;4.460;2023-07-20T10:20:43;101770.38;;;22.17;53.65
74594;BME280;63097;51.872;4.460;2023-07-20T10:23:09;101763.78;;;23.58;50.82
74594;BME280;63097;51.872;4.460;2023-07-20T10:25:35;101757.97;;;24.35;47.76
74594;BME280;63097;51.872;4.460;2023-07-20T10:28:01;101758.44;;;23.79;49.02
74594;BME280;63097;51.872;4.460;2023-07-20T10:30:27;101764.09;;;24.50;48.16
74594;BME280;63097;51.872;4.460;2023-07-20T10:32:52;101766.28;;;25.37;45.17
74594;BME280;63097;51.872;4.460;2023-07-20T10:35:18;101767.00;;;26.07;43.52
74594;BME280;63097;51.872;4.460;2023-07-20T10:37:53;101758.25;;;26.72;40.96
74594;BME280;63097;51.872;4.460;2023-07-20T10:40:33;101763.59;;;26.65;41.77
74594;BME280;63097;51.872;4.460;2023-07-20T10:43:04;101752.03;;;25.37;43.40
74594;BME280;63097;51.872;4.460;2023-07-20T10:48:03;101751.88;;;23.56;48.14
74594;BME280;63097;51.872;4.460;2023-07-20T10:50:28;101752.91;;;23.06;47.52
74594;BME280;63097;51.872;4.460;2023-07-20T10:53:15;101740.91;;;22.50;51.39
74594;BME280;63097;51.872;4.460;2023-07-20T10:55:40;101749.59;;;22.40;51.19
74594;BME280;63097;51.872;4.460;2023-07-20T10:58:07;101748.38;;;22.27;50.31
74594;BME280;63097;51.872;4.460;2023-07-20T11:00:32;101750.41;;;22.27;49.59
74594;BME280;63097;51.872;4.460;2023-07-20T11:02:58;101753.59;;;22.71;50.15
74594;BME280;63097;51.872;4.460;2023-07-20T11:05:36;101752.94;;;23.33;48.33
74594;BME280;63097;51.872;4.460;2023-07-20T11:08:09;101749.03;;;23.16;48.45
74594;BME280;63097;51.872;4.460;2023-07-20T11:10:35;101742.03;;;22.67;51.56
74594;BME280;63097;51.872;4.460;2023-07-20T11:13:25;101745.34;;;23.15;48.79
74594;BME280;63097;51.872;4.460;2023-07-20T11:18:21;101733.38;;;24.08;46.88
74594;BME280;63097;51.872;4.460;2023-07-20T11:20:50;101737.03;;;25.45;45.70
74594;BME280;63097;51.872;4.460;2023-07-20T11:23:16;101734.50;;;26.89;40.36
74594;BME280;63097;51.872;4.460;2023-07-20T11:25:41;101730.09;;;28.57;36.61
74594;BME280;63097;51.872;4.460;2023-07-20T11:28:07;101733.59;;;27.51;38.50
74594;BME280;63097;51.872;4.460;2023-07-20T11:30:33;101731.19;;;27.24;38.55
74594;BME280;63097;51.872;4.460;2023-07-20T11:32:59;101723.53;;;27.08;41.38
74594;BME280;63097;51.872;4.460;2023-07-20T11:35:24;101720.38;;;26.92;39.95
74594;BME280;63097;51.872;4.460;2023-07-20T11:37:49;101719.38;;;26.08;41.22
74594;BME280;63097;51.872;4.460;2023-07-20T11:40:15;101712.41;;;25.66;41.47
74594;BME280;63097;51.872;4.460;2023-07-20T11:42:40;101701.75;;;24.84;43.89
74594;BME280;63097;51.872;4.460;2023-07-20T11:45:06;101714.66;;;24.60;43.82
74594;BME280;63097;51.872;4.460;2023-07-20T11:47:32;101710.16;;;24.15;45.80
74594;BME280;63097;51.872;4.460;2023-07-20T11:50:02;101715.75;;;24.72;43.69
74594;BME280;63097;51.872;4.460;2023-07-20T11:52:28;101705.50;;;25.02;43.61
74594;BME280;63097;51.872;4.460;2023-07-20T11:54:53;101715.41;;;25.05;43.24
74594;BME280;63097;51.872;4.460;2023-07-20T11:57:20;101708.16;;;24.90;43.41
74594;BME280;63097;51.872;4.460;2023-07-20T12:00:00;101712.53;;;24.43;45.53
74594;BME280;63097;51.872;4.460;2023-07-20T12:02:29;101707.00;;;24.69;43.18
74594;BME280;63097;51.872;4.460;2023-07-20T12:04:55;101711.09;;;24.54;43.58
74594;BME280;63097;51.872;4.460;2023-07-20T12:07:21;101707.69;;;24.22;45.68
74594;BME280;63097;51.872;4.460;2023-07-20T12:10:06;101703.34;;;23.66;45.16
74594;BME280;63097;51.872;4.460;2023-07-20T12:12:38;101712.88;;;24.20;44.17
74594;BME280;63097;51.872;4.460;2023-07-20T12:15:24;101700.66;;;24.19;46.54
74594;BME280;63097;51.872;4.460;2023-07-20T12:17:52;101710.34;;;24.40;44.38
74594;BME280;63097;51.872;4.460;2023-07-20T12:20:32;101707.88;;;24.47;44.61
74594;BME280;63097;51.872;4.460;2023-07-20T12:23:11;101702.91;;;24.09;44.91
74594;BME280;63097;51.872;4.460;2023-07-20T12:25:46;101708.09;;;23.71;45.51
74594;BME280;63097;51.872;4.460;2023-07-20T12:28:13;101696.03;;;23.87;44.86
74594;BME280;63097;51.872;4.460;2023-07-20T12:30:40;101695.84;;;23.35;46.45
74594;BME280;63097;51.872;4.460;2023-07-20T12:33:06;101694.47;;;23.46;45.50
74594;BME280;63097;51.872;4.460;2023-07-20T12:35:32;101699.50;;;23.35;46.42
74594;BME280;63097;51.872;4.460;2023-07-20T12:37:57;101693.22;;;23.38;46.61
74594;BME280;63097;51.872;4.460;2023-07-20T12:40:23;101693.22;;;23.38;45.64
74594;BME280;63097;51.872;4.460;2023-07-20T12:42:49;101689.53;;;24.09;45.75
74594;BME280;63097;51.872;4.460;2023-07-20T12:45:14;101695.28;;;24.18;44.29
74594;BME280;63097;51.872;4.460;2023-07-20T12:47:40;101692.31;;;25.15;42.51
74594;BME280;63097;51.872;4.460;2023-07-20T12:50:06;101691.63;;;25.57;41.32
74594;BME280;63097;51.872;4.460;2023-07-20T12:52:35;101678.94;;;26.14;41.60
74594;BME280;63097;51.872;4.460;2023-07-20T12:55:01;101681.91;;;26.01;41.46
74594;BME280;63097;51.872;4.460;2023-07-20T12:57:26;101682.75;;;26.99;39.61